sensor_id;sensor_type;location;lat;lon;timestamp;P1;durP1;ratioP1;P2;durP2;ratioP2
13592;SDS011;6867;50.998;4.250;2023-03-22T00:01:08;15.20;;;5.57;;
13592;SDS011;6867;50.998;4.250;2023-03-22T00:03:36;8.80;;;5.83;;
13592;SDS011;6867;50.998;4.250;2023-03-22T00:06:03;11.60;;;6.30;;
13592;SDS011;6867;50.998;4.250;2023-03-22T00:08:30;10.87;;;6.20;;
13592;SDS011;6867;50.998;4.250;2023-03-22T00:10:59;11.47;;;7.50;;
13592;SDS011;6867;50.998;4.250;2023-03-22T00:13:26;21.60;;;8.23;;
13592;SDS011;6867;50.998;4.250;2023-03-22T00:15:53;13.50;;;8.13;;
13592;SDS011;6867;50.998;4.250;2023-03-22T00:18:22;13.47;;;8.97;;
13592;SDS011;6867;50.998;4.250;2023-03-22T00:20:51;13.07;;;8.47;;
13592;SDS011;6867;50.998;4.250;2023-03-22T00:23:19;13.30;;;8.10;;
13592;SDS011;6867;50.998;4.250;2023-03-22T00:25:46;13.40;;;8.60;;
13592;SDS011;6867;50.998;4.250;2023-03-22T00:28:14;15.67;;;9.30;;
13592;SDS011;6867;50.998;4.250;2023-03-22T00:30:42;17.77;;;8.73;;
13592;SDS011;6867;50.998;4.250;2023-03-22T00:33:15;13.83;;;8.50;;
13592;SDS011;6867;50.998;4.250;2023-03-22T00:35:46;16.03;;;9.30;;
13592;SDS011;6867;50.998;4.250;2023-03-22T00:38:13;16.47;;;9.23;;
13592;SDS011;6867;50.998;4.250;2023-03-22T00:40:40;14.23;;;8.73;;
13592;SDS011;6867;50.998;4.250;2023-03-22T00:43:07;12.63;;;8.97;;
13592;SDS011;6867;50.998;4.250;2023-03-22T00:45:35;17.37;;;9.13;;
13592;SDS011;6867;50.998;4.250;2023-03-22T00:48:05;16.53;;;9.93;;
13592;SDS011;6867;50.998;4.250;2023-03-22T00:50:32;15.23;;;9.57;;
13592;SDS011;6867;50.998;4.250;2023-03-22T00:52:59;15.43;;;10.17;;
13592;SDS011;6867;50.998;4.250;2023-03-22T00:55:26;16.33;;;9.90;;
13592;SDS011;6867;50.998;4.250;2023-03-22T00:57:52;16.57;;;10.43;;
13592;SDS011;6867;50.998;4.250;2023-03-22T01:00:19;21.47;;;11.07;;
13592;SDS011;6867;50.998;4.250;2023-03-22T01:02:47;15.83;;;9.30;;
13592;SDS011;6867;50.998;4.250;2023-03-22T01:05:17;22.83;;;9.83;;
13592;SDS011;6867;50.998;4.250;2023-03-22T01:07:46;16.97;;;10.00;;
13592;SDS011;6867;50.998;4.250;2023-03-22T01:10:15;18.27;;;10.10;;
13592;SDS011;6867;50.998;4.250;2023-03-22T01:12:43;14.87;;;10.03;;
13592;SDS011;6867;50.998;4.250;2023-03-22T01:15:10;16.63;;;9.40;;
13592;SDS011;6867;50.998;4.250;2023-03-22T01:17:37;17.27;;;9.90;;
13592;SDS011;6867;50.998;4.250;2023-03-22T01:20:06;15.40;;;8.97;;
13592;SDS011;6867;50.998;4.250;2023-03-22T01:22:33;16.27;;;9.43;;
13592;SDS011;6867;50.998;4.250;2023-03-22T01:25:00;14.80;;;8.50;;
13592;SDS011;6867;50.998;4.250;2023-03-22T01:27:27;13.73;;;8.30;;
13592;SDS011;6867;50.998;4.250;2023-03-22T01:29:54;14.97;;;8.40;;
13592;SDS011;6867;50.998;4.250;2023-03-22T01:32:21;12.87;;;8.63;;
13592;SDS011;6867;50.998;4.250;2023-03-22T01:34:48;15.50;;;8.63;;
13592;SDS011;6867;50.998;4.250;2023-03-22T01:37:17;17.13;;;8.80;;
13592;SDS011;6867;50.998;4.250;2023-03-22T01:39:46;13.97;;;8.30;;
13592;SDS011;6867;50.998;4.250;2023-03-22T01:42:13;14.07;;;8.20;;
13592;SDS011;6867;50.998;4.250;2023-03-22T01:44:41;16.67;;;8.43;;
13592;SDS011;6867;50.998;4.250;2023-03-22T01:47:09;15.37;;;8.33;;
13592;SDS011;6867;50.998;4.250;2023-03-22T01:49:36;14.40;;;7.53;;
13592;SDS011;6867;50.998;4.250;2023-03-22T01:52:05;15.13;;;8.17;;
13592;SDS011;6867;50.998;4.250;2023-03-22T01:54:37;16.00;;;8.37;;
13592;SDS011;6867;50.998;4.250;2023-03-22T01:57:07;17.20;;;8.13;;
13592;SDS011;6867;50.998;4.250;2023-03-22T01:59:34;11.63;;;7.13;;
13592;SDS011;6867;50.998;4.250;2023-03-22T02:02:01;14.87;;;7.53;;
13592;SDS011;6867;50.998;4.250;2023-03-22T02:04:29;14.13;;;7.77;;
13592;SDS011;6867;50.998;4.250;2023-03-22T02:06:59;12.53;;;7.30;;
13592;SDS011;6867;50.998;4.250;2023-03-22T02:09:33;15.40;;;7.00;;
13592;SDS011;6867;50.998;4.250;2023-03-22T02:12:07;10.13;;;6.60;;
13592;SDS011;6867;50.998;4.250;2023-03-22T02:14:47;11.03;;;6.33;;
13592;SDS011;6867;50.998;4.250;2023-03-22T02:17:28;10.93;;;6.50;;
13592;SDS011;6867;50.998;4.250;2023-03-22T02:20:11;11.87;;;6.03;;
13592;SDS011;6867;50.998;4.250;2023-03-22T02:26:28;9.77;;;5.93;;
13592;SDS011;6867;50.998;4.250;2023-03-22T02:29:12;10.87;;;5.50;;
13592;SDS011;6867;50.998;4.250;2023-03-22T02:31:57;10.07;;;5.53;;
13592;SDS011;6867;50.998;4.250;2023-03-22T02:34:56;7.33;;;5.13;;
13592;SDS011;6867;50.998;4.250;2023-03-22T02:37:59;8.03;;;5.10;;
13592;SDS011;6867;50.998;4.250;2023-03-22T02:40:53;10.57;;;5.00;;
13592;SDS011;6867;50.998;4.250;2023-03-22T02:43:28;5.80;;;4.23;;
13592;SDS011;6867;50.998;4.250;2023-03-22T02:46:03;11.30;;;5.07;;
13592;SDS011;6867;50.998;4.250;2023-03-22T02:48:34;7.97;;;4.70;;
13592;SDS011;6867;50.998;4.250;2023-03-22T02:51:08;7.50;;;4.50;;
13592;SDS011;6867;50.998;4.250;2023-03-22T02:53:40;12.27;;;4.50;;
13592;SDS011;6867;50.998;4.250;2023-03-22T02:56:12;9.97;;;4.27;;
13592;SDS011;6867;50.998;4.250;2023-03-22T02:58:42;11.40;;;4.27;;
13592;SDS011;6867;50.998;4.250;2023-03-22T03:01:13;10.53;;;4.83;;
13592;SDS011;6867;50.998;4.250;2023-03-22T03:03:44;9.53;;;4.13;;
13592;SDS011;6867;50.998;4.250;2023-03-22T03:06:15;8.67;;;3.63;;
13592;SDS011;6867;50.998;4.250;2023-03-22T03:08:45;8.23;;;3.70;;
13592;SDS011;6867;50.998;4.250;2023-03-22T03:11:17;9.60;;;3.70;;
13592;SDS011;6867;50.998;4.250;2023-03-22T03:13:45;6.43;;;3.47;;
13592;SDS011;6867;50.998;4.250;2023-03-22T03:16:13;8.33;;;3.50;;
13592;SDS011;6867;50.998;4.250;2023-03-22T03:18:42;10.80;;;4.03;;
13592;SDS011;6867;50.998;4.250;2023-03-22T03:21:22;11.70;;;4.07;;
13592;SDS011;6867;50.998;4.250;2023-03-22T03:23:56;12.83;;;4.50;;
13592;SDS011;6867;50.998;4.250;2023-03-22T03:26:32;7.33;;;3.57;;
13592;SDS011;6867;50.998;4.250;2023-03-22T03:29:06;8.97;;;3.60;;
13592;SDS011;6867;50.998;4.250;2023-03-22T03:31:40;10.07;;;4.30;;
13592;SDS011;6867;50.998;4.250;2023-03-22T03:34:12;11.07;;;3.97;;
13592;SDS011;6867;50.998;4.250;2023-03-22T03:36:45;8.00;;;3.23;;
13592;SDS011;6867;50.998;4.250;2023-03-22T03:39:17;9.67;;;3.30;;
13592;SDS011;6867;50.998;4.250;2023-03-22T03:41:47;9.40;;;3.47;;
13592;SDS011;6867;50.998;4.250;2023-03-22T03:44:17;5.97;;;3.00;;
13592;SDS011;6867;50.998;4.250;2023-03-22T03:46:45;6.63;;;3.13;;
13592;SDS011;6867;50.998;4.250;2023-03-22T03:49:12;8.80;;;3.23;;
13592;SDS011;6867;50.998;4.250;2023-03-22T03:51:48;6.83;;;3.47;;
13592;SDS011;6867;50.998;4.250;2023-03-22T03:54:17;8.23;;;3.03;;
13592;SDS011;6867;50.998;4.250;2023-03-22T03:56:44;5.70;;;2.93;;
13592;SDS011;6867;50.998;4.250;2023-03-22T03:59:15;7.13;;;2.87;;
13592;SDS011;6867;50.998;4.250;2023-03-22T04:01:42;5.90;;;2.87;;
13592;SDS011;6867;50.998;4.250;2023-03-22T04:04:14;9.10;;;3.00;;
13592;SDS011;6867;50.998;4.250;2023-03-22T04:06:41;8.47;;;2.83;;
13592;SDS011;6867;50.998;4.250;2023-03-22T04:09:08;7.57;;;2.90;;
13592;SDS011;6867;50.998;4.250;2023-03-22T04:11:36;8.00;;;2.97;;
13592;SDS011;6867;50.998;4.250;2023-03-22T04:14:02;7.27;;;2.67;;
13592;SDS011;6867;50.998;4.250;2023-03-22T04:16:30;5.43;;;3.07;;
13592;SDS011;6867;50.998;4.250;2023-03-22T04:18:57;5.67;;;2.43;;
13592;SDS011;6867;50.998;4.250;2023-03-22T04:21:24;9.03;;;2.70;;
13592;SDS011;6867;50.998;4.250;2023-03-22T04:23:51;8.70;;;3.33;;
13592;SDS011;6867;50.998;4.250;2023-03-22T04:26:19;9.37;;;2.17;;
13592;SDS011;6867;50.998;4.250;2023-03-22T04:28:46;6.43;;;2.20;;
13592;SDS011;6867;50.998;4.250;2023-03-22T04:31:13;5.30;;;2.13;;
13592;SDS011;6867;50.998;4.250;2023-03-22T04:33:41;6.50;;;2.10;;
13592;SDS011;6867;50.998;4.250;2023-03-22T04:36:11;6.10;;;2.50;;
13592;SDS011;6867;50.998;4.250;2023-03-22T04:38:40;8.87;;;2.13;;
13592;SDS011;6867;50.998;4.250;2023-03-22T04:41:07;6.17;;;1.93;;
13592;SDS011;6867;50.998;4.250;2023-03-22T04:43:34;8.10;;;2.43;;
13592;SDS011;6867;50.998;4.250;2023-03-22T04:46:03;10.53;;;2.23;;
13592;SDS011;6867;50.998;4.250;2023-03-22T04:48:34;6.00;;;1.83;;
13592;SDS011;6867;50.998;4.250;2023-03-22T04:51:03;9.40;;;2.00;;
13592;SDS011;6867;50.998;4.250;2023-03-22T04:53:30;4.30;;;2.00;;
13592;SDS011;6867;50.998;4.250;2023-03-22T04:55:57;6.83;;;2.13;;
13592;SDS011;6867;50.998;4.250;2023-03-22T04:58:24;6.13;;;2.17;;
13592;SDS011;6867;50.998;4.250;2023-03-22T05:00:51;8.27;;;2.50;;
13592;SDS011;6867;50.998;4.250;2023-03-22T05:03:18;6.67;;;2.03;;
13592;SDS011;6867;50.998;4.250;2023-03-22T05:05:49;8.33;;;1.87;;
13592;SDS011;6867;50.998;4.250;2023-03-22T05:08:18;8.43;;;2.00;;
13592;SDS011;6867;50.998;4.250;2023-03-22T05:10:45;7.10;;;2.23;;
13592;SDS011;6867;50.998;4.250;2023-03-22T05:13:12;8.07;;;2.07;;
13592;SDS011;6867;50.998;4.250;2023-03-22T05:15:39;9.57;;;2.50;;
13592;SDS011;6867;50.998;4.250;2023-03-22T05:18:06;10.17;;;2.13;;
13592;SDS011;6867;50.998;4.250;2023-03-22T05:20:33;8.63;;;1.90;;
13592;SDS011;6867;50.998;4.250;2023-03-22T05:23:00;7.77;;;2.80;;
13592;SDS011;6867;50.998;4.250;2023-03-22T05:25:30;7.03;;;2.20;;
13592;SDS011;6867;50.998;4.250;2023-03-22T05:27:58;7.17;;;2.40;;
13592;SDS011;6867;50.998;4.250;2023-03-22T05:30:26;7.43;;;2.97;;
13592;SDS011;6867;50.998;4.250;2023-03-22T05:32:56;7.73;;;2.70;;
13592;SDS011;6867;50.998;4.250;2023-03-22T05:35:24;8.70;;;3.30;;
13592;SDS011;6867;50.998;4.250;2023-03-22T05:37:52;8.37;;;2.87;;
13592;SDS011;6867;50.998;4.250;2023-03-22T05:40:19;11.13;;;3.60;;
13592;SDS011;6867;50.998;4.250;2023-03-22T05:42:47;20.83;;;3.90;;
13592;SDS011;6867;50.998;4.250;2023-03-22T05:45:14;5.23;;;3.20;;
13592;SDS011;6867;50.998;4.250;2023-03-22T05:47:41;7.53;;;3.50;;
13592;SDS011;6867;50.998;4.250;2023-03-22T05:50:08;7.10;;;2.93;;
13592;SDS011;6867;50.998;4.250;2023-03-22T05:52:37;8.17;;;2.63;;
13592;SDS011;6867;50.998;4.250;2023-03-22T05:55:05;7.70;;;3.03;;
13592;SDS011;6867;50.998;4.250;2023-03-22T05:57:32;8.03;;;3.10;;
13592;SDS011;6867;50.998;4.250;2023-03-22T06:00:00;9.07;;;2.53;;
13592;SDS011;6867;50.998;4.250;2023-03-22T06:02:28;13.90;;;2.93;;
13592;SDS011;6867;50.998;4.250;2023-03-22T06:04:54;7.27;;;3.03;;
13592;SDS011;6867;50.998;4.250;2023-03-22T06:07:21;10.43;;;3.00;;
13592;SDS011;6867;50.998;4.250;2023-03-22T06:09:48;4.83;;;2.30;;
13592;SDS011;6867;50.998;4.250;2023-03-22T06:12:15;8.00;;;2.63;;
13592;SDS011;6867;50.998;4.250;2023-03-22T06:14:42;12.20;;;2.67;;
13592;SDS011;6867;50.998;4.250;2023-03-22T06:17:10;12.00;;;2.97;;
13592;SDS011;6867;50.998;4.250;2023-03-22T06:19:37;12.90;;;3.00;;
13592;SDS011;6867;50.998;4.250;2023-03-22T06:22:04;9.73;;;2.73;;
13592;SDS011;6867;50.998;4.250;2023-03-22T06:24:30;5.90;;;2.10;;
13592;SDS011;6867;50.998;4.250;2023-03-22T06:26:57;7.43;;;2.23;;
13592;SDS011;6867;50.998;4.250;2023-03-22T06:29:24;9.00;;;2.77;;
13592;SDS011;6867;50.998;4.250;2023-03-22T06:31:51;6.97;;;2.10;;
13592;SDS011;6867;50.998;4.250;2023-03-22T06:34:19;8.07;;;1.87;;
13592;SDS011;6867;50.998;4.250;2023-03-22T06:36:46;5.87;;;1.93;;
13592;SDS011;6867;50.998;4.250;2023-03-22T06:39:12;10.17;;;2.30;;
13592;SDS011;6867;50.998;4.250;2023-03-22T06:41:39;10.23;;;2.07;;
13592;SDS011;6867;50.998;4.250;2023-03-22T06:44:06;4.13;;;1.37;;
13592;SDS011;6867;50.998;4.250;2023-03-22T06:46:32;3.23;;;1.33;;
13592;SDS011;6867;50.998;4.250;2023-03-22T06:48:59;14.13;;;2.03;;
13592;SDS011;6867;50.998;4.250;2023-03-22T06:51:27;8.73;;;1.70;;
13592;SDS011;6867;50.998;4.250;2023-03-22T06:53:54;5.37;;;1.77;;
13592;SDS011;6867;50.998;4.250;2023-03-22T06:56:21;6.13;;;1.90;;
13592;SDS011;6867;50.998;4.250;2023-03-22T06:58:48;5.90;;;2.10;;
13592;SDS011;6867;50.998;4.250;2023-03-22T07:01:16;12.40;;;2.07;;
13592;SDS011;6867;50.998;4.250;2023-03-22T07:03:42;7.33;;;1.80;;
13592;SDS011;6867;50.998;4.250;2023-03-22T07:06:09;11.87;;;1.87;;
13592;SDS011;6867;50.998;4.250;2023-03-22T07:08:38;5.37;;;1.93;;
13592;SDS011;6867;50.998;4.250;2023-03-22T07:11:05;5.43;;;1.90;;
13592;SDS011;6867;50.998;4.250;2023-03-22T07:13:32;14.53;;;2.47;;
13592;SDS011;6867;50.998;4.250;2023-03-22T07:15:59;4.93;;;2.10;;
13592;SDS011;6867;50.998;4.250;2023-03-22T07:18:27;9.97;;;2.50;;
13592;SDS011;6867;50.998;4.250;2023-03-22T07:20:54;5.43;;;1.90;;
13592;SDS011;6867;50.998;4.250;2023-03-22T07:23:22;6.43;;;1.90;;
13592;SDS011;6867;50.998;4.250;2023-03-22T07:25:50;9.23;;;1.93;;
13592;SDS011;6867;50.998;4.250;2023-03-22T07:28:19;4.67;;;2.23;;
13592;SDS011;6867;50.998;4.250;2023-03-22T07:30:46;11.17;;;2.47;;
13592;SDS011;6867;50.998;4.250;2023-03-22T07:33:13;14.53;;;2.20;;
13592;SDS011;6867;50.998;4.250;2023-03-22T07:35:40;5.70;;;2.10;;
13592;SDS011;6867;50.998;4.250;2023-03-22T07:38:07;7.13;;;1.60;;
13592;SDS011;6867;50.998;4.250;2023-03-22T07:40:33;3.70;;;1.60;;
13592;SDS011;6867;50.998;4.250;2023-03-22T07:43:03;8.60;;;2.00;;
13592;SDS011;6867;50.998;4.250;2023-03-22T07:45:29;6.17;;;2.00;;
13592;SDS011;6867;50.998;4.250;2023-03-22T07:47:56;6.90;;;2.03;;
13592;SDS011;6867;50.998;4.250;2023-03-22T07:50:23;6.07;;;2.17;;
13592;SDS011;6867;50.998;4.250;2023-03-22T07:52:50;9.47;;;2.17;;
13592;SDS011;6867;50.998;4.250;2023-03-22T07:55:16;7.45;;;2.20;;
13592;SDS011;6867;50.998;4.250;2023-03-22T07:57:43;7.07;;;1.60;;
13592;SDS011;6867;50.998;4.250;2023-03-22T08:00:13;8.83;;;1.93;;
13592;SDS011;6867;50.998;4.250;2023-03-22T08:02:41;5.63;;;1.80;;
13592;SDS011;6867;50.998;4.250;2023-03-22T08:05:09;12.47;;;2.47;;
13592;SDS011;6867;50.998;4.250;2023-03-22T08:07:36;6.23;;;1.63;;
13592;SDS011;6867;50.998;4.250;2023-03-22T08:10:03;8.00;;;3.10;;
13592;SDS011;6867;50.998;4.250;2023-03-22T08:12:30;8.90;;;2.60;;
13592;SDS011;6867;50.998;4.250;2023-03-22T08:14:57;4.43;;;1.85;;
13592;SDS011;6867;50.998;4.250;2023-03-22T08:17:26;7.40;;;2.13;;
13592;SDS011;6867;50.998;4.250;2023-03-22T08:19:54;7.50;;;2.27;;
13592;SDS011;6867;50.998;4.250;2023-03-22T08:22:21;8.63;;;2.60;;
13592;SDS011;6867;50.998;4.250;2023-03-22T08:24:50;10.93;;;2.40;;
13592;SDS011;6867;50.998;4.250;2023-03-22T08:27:17;8.23;;;2.00;;
13592;SDS011;6867;50.998;4.250;2023-03-22T08:29:44;7.72;;;2.30;;
13592;SDS011;6867;50.998;4.250;2023-03-22T08:32:11;4.68;;;2.10;;
13592;SDS011;6867;50.998;4.250;2023-03-22T08:34:40;4.85;;;1.40;;
13592;SDS011;6867;50.998;4.250;2023-03-22T08:37:09;6.75;;;2.67;;
13592;SDS011;6867;50.998;4.250;2023-03-22T08:39:37;9.73;;;1.67;;
13592;SDS011;6867;50.998;4.250;2023-03-22T08:42:04;5.33;;;1.87;;
13592;SDS011;6867;50.998;4.250;2023-03-22T08:44:31;6.57;;;2.30;;
13592;SDS011;6867;50.998;4.250;2023-03-22T08:46:57;7.70;;;1.50;;
13592;SDS011;6867;50.998;4.250;2023-03-22T08:49:25;7.95;;;2.03;;
13592;SDS011;6867;50.998;4.250;2023-03-22T08:51:53;12.63;;;2.40;;
13592;SDS011;6867;50.998;4.250;2023-03-22T08:54:22;7.97;;;2.08;;
13592;SDS011;6867;50.998;4.250;2023-03-22T08:56:52;8.60;;;1.92;;
13592;SDS011;6867;50.998;4.250;2023-03-22T08:59:18;7.03;;;2.03;;
13592;SDS011;6867;50.998;4.250;2023-03-22T09:01:45;3.03;;;1.60;;
13592;SDS011;6867;50.998;4.250;2023-03-22T09:04:12;4.37;;;1.77;;
13592;SDS011;6867;50.998;4.250;2023-03-22T09:06:39;9.33;;;1.80;;
13592;SDS011;6867;50.998;4.250;2023-03-22T09:09:10;9.87;;;1.90;;
13592;SDS011;6867;50.998;4.250;2023-03-22T09:11:37;9.23;;;1.85;;
13592;SDS011;6867;50.998;4.250;2023-03-22T09:14:05;8.60;;;2.20;;
13592;SDS011;6867;50.998;4.250;2023-03-22T09:16:32;8.30;;;2.28;;
13592;SDS011;6867;50.998;4.250;2023-03-22T09:18:59;5.63;;;1.80;;
13592;SDS011;6867;50.998;4.250;2023-03-22T09:21:26;6.17;;;2.13;;
13592;SDS011;6867;50.998;4.250;2023-03-22T09:23:53;7.40;;;2.00;;
13592;SDS011;6867;50.998;4.250;2023-03-22T09:26:22;5.87;;;2.00;;
13592;SDS011;6867;50.998;4.250;2023-03-22T09:28:49;8.57;;;1.98;;
13592;SDS011;6867;50.998;4.250;2023-03-22T09:31:16;6.93;;;2.17;;
13592;SDS011;6867;50.998;4.250;2023-03-22T09:33:43;5.53;;;1.95;;
13592;SDS011;6867;50.998;4.250;2023-03-22T09:36:10;4.90;;;1.90;;
13592;SDS011;6867;50.998;4.250;2023-03-22T09:38:37;5.80;;;1.63;;
13592;SDS011;6867;50.998;4.250;2023-03-22T09:41:06;5.13;;;1.80;;
13592;SDS011;6867;50.998;4.250;2023-03-22T09:43:40;5.47;;;1.52;;
13592;SDS011;6867;50.998;4.250;2023-03-22T09:46:11;7.50;;;2.13;;
13592;SDS011;6867;50.998;4.250;2023-03-22T09:48:41;5.40;;;1.80;;
13592;SDS011;6867;50.998;4.250;2023-03-22T09:51:13;9.30;;;1.90;;
13592;SDS011;6867;50.998;4.250;2023-03-22T09:53:48;8.93;;;2.22;;
13592;SDS011;6867;50.998;4.250;2023-03-22T09:56:16;6.40;;;2.30;;
13592;SDS011;6867;50.998;4.250;2023-03-22T09:58:51;5.10;;;1.98;;
13592;SDS011;6867;50.998;4.250;2023-03-22T10:01:23;2.28;;;1.55;;
13592;SDS011;6867;50.998;4.250;2023-03-22T10:04:01;8.77;;;1.88;;
13592;SDS011;6867;50.998;4.250;2023-03-22T10:06:40;6.03;;;1.35;;
13592;SDS011;6867;50.998;4.250;2023-03-22T10:09:13;5.03;;;1.70;;
13592;SDS011;6867;50.998;4.250;2023-03-22T10:11:45;5.90;;;2.03;;
13592;SDS011;6867;50.998;4.250;2023-03-22T10:14:28;7.67;;;1.63;;
13592;SDS011;6867;50.998;4.250;2023-03-22T10:16:58;4.32;;;1.60;;
13592;SDS011;6867;50.998;4.250;2023-03-22T10:19:30;5.43;;;2.10;;
13592;SDS011;6867;50.998;4.250;2023-03-22T10:22:00;5.33;;;1.60;;
13592;SDS011;6867;50.998;4.250;2023-03-22T10:24:30;5.83;;;1.87;;
13592;SDS011;6867;50.998;4.250;2023-03-22T10:26:59;3.23;;;1.80;;
13592;SDS011;6867;50.998;4.250;2023-03-22T10:29:29;4.23;;;2.23;;
13592;SDS011;6867;50.998;4.250;2023-03-22T10:32:08;4.45;;;1.63;;
13592;SDS011;6867;50.998;4.250;2023-03-22T10:34:39;2.95;;;1.65;;
13592;SDS011;6867;50.998;4.250;2023-03-22T10:37:09;5.67;;;1.83;;
13592;SDS011;6867;50.998;4.250;2023-03-22T10:39:40;2.93;;;1.53;;
13592;SDS011;6867;50.998;4.250;2023-03-22T10:42:11;10.27;;;2.08;;
13592;SDS011;6867;50.998;4.250;2023-03-22T10:44:44;3.23;;;1.83;;
13592;SDS011;6867;50.998;4.250;2023-03-22T10:47:14;1.87;;;1.33;;
13592;SDS011;6867;50.998;4.250;2023-03-22T10:49:43;6.03;;;2.03;;
13592;SDS011;6867;50.998;4.250;2023-03-22T10:52:23;4.60;;;1.53;;
13592;SDS011;6867;50.998;4.250;2023-03-22T10:55:01;3.97;;;1.63;;
13592;SDS011;6867;50.998;4.250;2023-03-22T10:57:28;4.32;;;1.70;;
13592;SDS011;6867;50.998;4.250;2023-03-22T10:59:56;5.47;;;1.73;;
13592;SDS011;6867;50.998;4.250;2023-03-22T11:02:24;5.07;;;1.77;;
13592;SDS011;6867;50.998;4.250;2023-03-22T11:04:52;5.57;;;1.67;;
13592;SDS011;6867;50.998;4.250;2023-03-22T11:07:31;5.10;;;1.92;;
13592;SDS011;6867;50.998;4.250;2023-03-22T11:10:16;3.85;;;1.50;;
13592;SDS011;6867;50.998;4.250;2023-03-22T11:12:48;4.50;;;1.97;;
13592;SDS011;6867;50.998;4.250;2023-03-22T11:15:24;6.70;;;2.00;;
13592;SDS011;6867;50.998;4.250;2023-03-22T11:17:56;5.78;;;1.70;;
13592;SDS011;6867;50.998;4.250;2023-03-22T11:20:25;5.47;;;1.75;;
13592;SDS011;6867;50.998;4.250;2023-03-22T11:22:53;8.48;;;2.03;;
13592;SDS011;6867;50.998;4.250;2023-03-22T11:25:24;3.70;;;1.60;;
13592;SDS011;6867;50.998;4.250;2023-03-22T11:27:54;8.57;;;1.55;;
13592;SDS011;6867;50.998;4.250;2023-03-22T11:30:24;6.90;;;1.80;;
13592;SDS011;6867;50.998;4.250;2023-03-22T11:32:58;4.10;;;1.90;;
13592;SDS011;6867;50.998;4.250;2023-03-22T11:35:28;3.92;;;1.70;;
13592;SDS011;6867;50.998;4.250;2023-03-22T11:37:56;4.60;;;1.70;;
13592;SDS011;6867;50.998;4.250;2023-03-22T11:40:28;4.28;;;1.90;;
13592;SDS011;6867;50.998;4.250;2023-03-22T11:43:01;4.30;;;1.58;;
13592;SDS011;6867;50.998;4.250;2023-03-22T11:45:40;3.15;;;1.80;;
13592;SDS011;6867;50.998;4.250;2023-03-22T11:48:08;7.57;;;2.00;;
13592;SDS011;6867;50.998;4.250;2023-03-22T11:50:41;4.30;;;1.60;;
13592;SDS011;6867;50.998;4.250;2023-03-22T11:53:10;4.82;;;1.80;;
13592;SDS011;6867;50.998;4.250;2023-03-22T11:55:40;5.82;;;2.30;;
13592;SDS011;6867;50.998;4.250;2023-03-22T11:58:18;5.43;;;2.30;;
13592;SDS011;6867;50.998;4.250;2023-03-22T12:00:52;9.07;;;2.10;;
13592;SDS011;6867;50.998;4.250;2023-03-22T12:03:20;4.93;;;1.75;;
13592;SDS011;6867;50.998;4.250;2023-03-22T12:05:51;5.30;;;2.25;;
13592;SDS011;6867;50.998;4.250;2023-03-22T12:08:20;4.30;;;2.10;;
13592;SDS011;6867;50.998;4.250;2023-03-22T12:10:52;5.38;;;2.38;;
13592;SDS011;6867;50.998;4.250;2023-03-22T12:13:26;5.18;;;2.70;;
13592;SDS011;6867;50.998;4.250;2023-03-22T12:16:00;4.80;;;1.88;;
13592;SDS011;6867;50.998;4.250;2023-03-22T12:18:32;8.40;;;2.90;;
13592;SDS011;6867;50.998;4.250;2023-03-22T12:21:04;6.22;;;2.28;;
13592;SDS011;6867;50.998;4.250;2023-03-22T12:23:32;2.75;;;2.10;;
13592;SDS011;6867;50.998;4.250;2023-03-22T12:26:01;4.13;;;2.40;;
13592;SDS011;6867;50.998;4.250;2023-03-22T12:28:31;7.93;;;2.75;;
13592;SDS011;6867;50.998;4.250;2023-03-22T12:31:08;4.72;;;2.33;;
13592;SDS011;6867;50.998;4.250;2023-03-22T12:33:42;8.00;;;2.50;;
13592;SDS011;6867;50.998;4.250;2023-03-22T12:36:13;6.57;;;2.50;;
13592;SDS011;6867;50.998;4.250;2023-03-22T12:38:45;5.88;;;2.42;;
13592;SDS011;6867;50.998;4.250;2023-03-22T12:41:17;5.03;;;2.40;;
13592;SDS011;6867;50.998;4.250;2023-03-22T12:43:51;5.22;;;2.50;;
13592;SDS011;6867;50.998;4.250;2023-03-22T12:46:22;5.65;;;2.47;;
13592;SDS011;6867;50.998;4.250;2023-03-22T12:48:54;3.45;;;2.45;;
13592;SDS011;6867;50.998;4.250;2023-03-22T12:51:24;5.97;;;2.72;;
13592;SDS011;6867;50.998;4.250;2023-03-22T12:53:51;10.38;;;2.63;;
13592;SDS011;6867;50.998;4.250;2023-03-22T12:56:21;6.45;;;2.50;;
13592;SDS011;6867;50.998;4.250;2023-03-22T12:58:51;6.97;;;2.85;;
13592;SDS011;6867;50.998;4.250;2023-03-22T13:01:24;4.50;;;2.33;;
13592;SDS011;6867;50.998;4.250;2023-03-22T13:03:57;9.10;;;2.60;;
13592;SDS011;6867;50.998;4.250;2023-03-22T13:06:28;5.55;;;2.45;;
13592;SDS011;6867;50.998;4.250;2023-03-22T13:09:02;4.97;;;2.28;;
13592;SDS011;6867;50.998;4.250;2023-03-22T13:11:39;4.63;;;2.28;;
13592;SDS011;6867;50.998;4.250;2023-03-22T13:14:10;4.68;;;2.63;;
13592;SDS011;6867;50.998;4.250;2023-03-22T13:16:43;4.03;;;2.83;;
13592;SDS011;6867;50.998;4.250;2023-03-22T13:19:29;3.90;;;2.53;;
13592;SDS011;6867;50.998;4.250;2023-03-22T13:25:06;3.40;;;2.53;;
13592;SDS011;6867;50.998;4.250;2023-03-22T13:27:39;6.15;;;3.05;;
13592;SDS011;6867;50.998;4.250;2023-03-22T13:30:14;6.10;;;2.85;;
13592;SDS011;6867;50.998;4.250;2023-03-22T13:32:49;7.85;;;2.90;;
13592;SDS011;6867;50.998;4.250;2023-03-22T13:35:18;5.72;;;2.80;;
13592;SDS011;6867;50.998;4.250;2023-03-22T13:37:48;5.27;;;2.60;;
13592;SDS011;6867;50.998;4.250;2023-03-22T13:40:21;9.10;;;3.33;;
13592;SDS011;6867;50.998;4.250;2023-03-22T13:43:07;3.85;;;2.72;;
13592;SDS011;6867;50.998;4.250;2023-03-22T13:45:36;9.17;;;3.33;;
13592;SDS011;6867;50.998;4.250;2023-03-22T13:48:28;5.60;;;2.88;;
13592;SDS011;6867;50.998;4.250;2023-03-22T13:50:57;7.35;;;3.22;;
13592;SDS011;6867;50.998;4.250;2023-03-22T13:53:35;6.07;;;2.70;;
13592;SDS011;6867;50.998;4.250;2023-03-22T13:56:04;4.32;;;2.80;;
13592;SDS011;6867;50.998;4.250;2023-03-22T13:58:36;5.47;;;3.10;;
13592;SDS011;6867;50.998;4.250;2023-03-22T14:01:16;6.37;;;3.20;;
13592;SDS011;6867;50.998;4.250;2023-03-22T14:03:51;7.35;;;3.40;;
13592;SDS011;6867;50.998;4.250;2023-03-22T14:06:19;5.47;;;3.13;;
13592;SDS011;6867;50.998;4.250;2023-03-22T14:08:52;5.87;;;3.27;;
13592;SDS011;6867;50.998;4.250;2023-03-22T14:11:24;6.87;;;3.47;;
13592;SDS011;6867;50.998;4.250;2023-03-22T14:13:56;7.50;;;3.10;;
13592;SDS011;6867;50.998;4.250;2023-03-22T14:16:32;8.40;;;3.30;;
13592;SDS011;6867;50.998;4.250;2023-03-22T14:19:05;4.85;;;2.85;;
13592;SDS011;6867;50.998;4.250;2023-03-22T14:21:33;8.65;;;3.17;;
13592;SDS011;6867;50.998;4.250;2023-03-22T14:24:03;4.33;;;2.90;;
13592;SDS011;6867;50.998;4.250;2023-03-22T14:26:33;7.78;;;3.10;;
13592;SDS011;6867;50.998;4.250;2023-03-22T14:29:04;5.47;;;3.30;;
13592;SDS011;6867;50.998;4.250;2023-03-22T14:31:33;6.10;;;3.38;;
13592;SDS011;6867;50.998;4.250;2023-03-22T14:34:00;6.25;;;3.10;;
13592;SDS011;6867;50.998;4.250;2023-03-22T14:36:32;8.07;;;3.40;;
13592;SDS011;6867;50.998;4.250;2023-03-22T14:39:03;6.03;;;3.45;;
13592;SDS011;6867;50.998;4.250;2023-03-22T14:41:31;4.40;;;2.80;;
13592;SDS011;6867;50.998;4.250;2023-03-22T14:43:59;7.13;;;3.30;;
13592;SDS011;6867;50.998;4.250;2023-03-22T14:46:30;6.57;;;4.00;;
13592;SDS011;6867;50.998;4.250;2023-03-22T14:48:58;4.60;;;3.50;;
13592;SDS011;6867;50.998;4.250;2023-03-22T14:51:28;4.13;;;3.33;;
13592;SDS011;6867;50.998;4.250;2023-03-22T14:53:59;5.03;;;3.40;;
13592;SDS011;6867;50.998;4.250;2023-03-22T14:56:30;8.53;;;3.87;;
13592;SDS011;6867;50.998;4.250;2023-03-22T14:58:59;5.70;;;3.93;;
13592;SDS011;6867;50.998;4.250;2023-03-22T15:01:29;7.37;;;4.40;;
13592;SDS011;6867;50.998;4.250;2023-03-22T15:04:01;4.73;;;3.57;;
13592;SDS011;6867;50.998;4.250;2023-03-22T15:06:34;7.53;;;4.20;;
13592;SDS011;6867;50.998;4.250;2023-03-22T15:09:09;6.50;;;3.93;;
13592;SDS011;6867;50.998;4.250;2023-03-22T15:11:37;8.13;;;3.87;;
13592;SDS011;6867;50.998;4.250;2023-03-22T15:14:05;6.50;;;3.77;;
13592;SDS011;6867;50.998;4.250;2023-03-22T15:16:34;7.00;;;4.37;;
13592;SDS011;6867;50.998;4.250;2023-03-22T15:19:04;8.10;;;4.13;;
13592;SDS011;6867;50.998;4.250;2023-03-22T15:21:37;7.20;;;3.93;;